Weather



East Midlands Airport
EAST MIDLANDS
Metar
EGNX 220650Z 22008KT CAVOK 10/05 Q1020

06:50 UTC

Wind: 220° 8kt

Visibility:

Sky:

Temp: 10 deg C / 50 deg F

Dewpoint: 5 deg C / 41 deg F

Pressure: 1020 hPa

Latest infrared satellite image